Time;durP1;ratioP1;P1;durP2;ratioP2;P2;SDS_P1;SDS_P2;PMS_P1;PMS_P2;Temp;Humidity;BMP_temperature;BMP_pressure;BME280_temperature;BME280_humidity;BME280_pressure;Samples;Min_cycle;Max_cycle;Signal;HPM_P1;HPM_P2
2021/05/03 00:01:45;;;;;;;11.90;8.13;;;5.90;99.90;;;;;;5029514;28;20017;-77
2021/05/03 00:04:11;;;;;;;9.43;6.93;;;6.00;99.90;;;;;;5031740;28;20075;-78
2021/05/03 00:06:36;;;;;;;11.73;8.45;;;6.00;99.90;;;;;;5030773;28;20033;-77
2021/05/03 00:09:03;;;;;;;11.73;7.32;;;5.90;99.90;;;;;;5031254;28;20079;-78
2021/05/03 00:11:29;;;;;;;14.52;9.52;;;5.90;99.90;;;;;;5031226;28;20022;-77
2021/05/03 00:13:54;;;;;;;9.98;6.65;;;5.80;99.90;;;;;;5033132;28;20048;-78
2021/05/03 00:16:20;;;;;;;9.57;6.03;;;5.70;99.90;;;;;;5028287;28;20158;-77
2021/05/03 00:18:46;;;;;;;8.77;5.65;;;5.80;99.90;;;;;;5036530;28;20021;-77
2021/05/03 00:21:11;;;;;;;11.13;5.93;;;5.80;99.90;;;;;;5029761;28;20037;-78
2021/05/03 00:23:37;;;;;;;9.05;5.97;;;5.80;99.90;;;;;;5032408;28;20036;-78
2021/05/03 00:26:03;;;;;;;8.73;5.43;;;5.80;99.90;;;;;;5038037;28;20478;-77
2021/05/03 00:28:29;;;;;;;8.13;4.78;;;5.60;99.90;;;;;;5031251;28;20543;-77
2021/05/03 00:30:55;;;;;;;7.70;4.97;;;5.60;99.90;;;;;;5033706;28;20029;-77
2021/05/03 00:33:20;;;;;;;8.27;4.80;;;5.50;99.90;;;;;;5028475;28;20379;-77
2021/05/03 00:35:46;;;;;;;8.27;5.63;;;5.50;99.90;;;;;;5030195;28;20076;-78
2021/05/03 00:38:12;;;;;;;9.55;6.47;;;5.50;99.90;;;;;;5030867;28;20084;-78
2021/05/03 00:40:37;;;;;;;12.00;6.93;;;5.50;99.90;;;;;;5032564;28;20366;-77
2021/05/03 00:43:03;;;;;;;8.68;6.25;;;5.50;99.90;;;;;;5034562;28;20079;-77
2021/05/03 00:45:33;;;;;;;8.38;5.70;;;5.40;99.90;;;;;;5032407;28;20371;-78
2021/05/03 00:47:59;;;;;;;9.23;6.68;;;5.30;99.90;;;;;;5031750;28;20029;-78
2021/05/03 00:50:29;;;;;;;9.55;6.15;;;5.40;99.90;;;;;;5028331;28;20091;-77
2021/05/03 00:52:56;;;;;;;8.32;5.75;;;5.40;99.90;;;;;;5028525;28;20036;-78
2021/05/03 00:55:24;;;;;;;7.55;5.60;;;5.40;99.90;;;;;;5032883;28;20125;-77
2021/05/03 00:57:49;;;;;;;8.93;5.45;;;5.30;99.90;;;;;;5031007;28;20041;-78
2021/05/03 01:00:15;;;;;;;12.20;6.25;;;5.30;99.90;;;;;;5036387;28;20025;-78
2021/05/03 01:02:41;;;;;;;9.48;6.28;;;5.30;99.90;;;;;;5033560;28;20034;-77
2021/05/03 01:05:08;;;;;;;10.60;6.95;;;5.30;99.90;;;;;;5038055;28;20120;-78
2021/05/03 01:07:34;;;;;;;9.68;6.63;;;5.30;99.90;;;;;;5037936;28;20032;-78
2021/05/03 01:10:00;;;;;;;10.35;6.10;;;5.30;99.90;;;;;;5036718;28;20044;-77
2021/05/03 01:12:26;;;;;;;13.45;5.63;;;5.30;99.90;;;;;;5040409;28;20033;-77
2021/05/03 01:14:51;;;;;;;7.68;4.93;;;5.20;99.90;;;;;;5040087;28;20513;-78
2021/05/03 01:17:17;;;;;;;8.65;5.97;;;5.10;99.90;;;;;;5034999;28;20037;-77
2021/05/03 01:19:43;;;;;;;8.13;5.40;;;5.10;99.90;;;;;;5039919;28;20151;-77
2021/05/03 01:22:08;;;;;;;6.80;4.60;;;5.00;99.90;;;;;;5036408;28;20151;-78
2021/05/03 01:24:34;;;;;;;8.45;5.32;;;5.10;99.90;;;;;;5031145;28;20042;-78
2021/05/03 01:27:00;;;;;;;8.60;4.97;;;5.10;99.90;;;;;;5035133;28;20029;-77
2021/05/03 01:29:26;;;;;;;8.20;4.82;;;5.10;99.90;;;;;;5033549;28;20037;-78
2021/05/03 01:31:53;;;;;;;7.03;4.78;;;5.10;99.90;;;;;;5031957;28;20029;-78
2021/05/03 01:34:20;;;;;;;7.07;4.38;;;5.10;99.90;;;;;;5034889;28;20400;-77
2021/05/03 01:36:47;;;;;;;8.27;5.72;;;5.10;99.90;;;;;;5034832;28;20549;-77
2021/05/03 01:39:15;;;;;;;8.20;4.72;;;5.10;99.90;;;;;;5033731;28;20037;-78
2021/05/03 01:41:41;;;;;;;8.05;5.35;;;5.10;99.90;;;;;;5034703;28;20022;-78
2021/05/03 01:44:09;;;;;;;9.50;6.25;;;4.90;99.90;;;;;;5035403;28;20562;-78
2021/05/03 01:46:36;;;;;;;10.25;5.43;;;5.00;99.90;;;;;;5034170;28;20056;-78
2021/05/03 01:49:04;;;;;;;9.48;6.97;;;5.00;99.90;;;;;;5036311;28;20037;-78
2021/05/03 01:51:30;;;;;;;8.43;6.55;;;5.00;99.90;;;;;;5030902;28;20087;-78
2021/05/03 01:53:57;;;;;;;7.50;5.68;;;5.00;99.90;;;;;;5035773;28;20033;-78
2021/05/03 01:56:26;;;;;;;9.27;5.47;;;5.00;99.90;;;;;;5035074;28;20025;-78
2021/05/03 01:58:52;;;;;;;8.55;5.90;;;5.00;99.90;;;;;;5034814;28;20040;-78
2021/05/03 02:01:18;;;;;;;12.40;5.35;;;4.90;99.90;;;;;;5035255;28;20043;-78
2021/05/03 02:03:44;;;;;;;10.82;6.68;;;4.90;99.90;;;;;;5032314;28;20039;-78
2021/05/03 02:06:12;;;;;;;9.23;5.90;;;5.00;99.90;;;;;;5028301;28;20025;-78
2021/05/03 02:08:38;;;;;;;6.65;4.30;;;4.90;99.90;;;;;;5035004;28;20034;-78
2021/05/03 02:11:04;;;;;;;7.75;4.95;;;4.80;99.90;;;;;;5031535;28;20041;-78
2021/05/03 02:13:30;;;;;;;8.27;6.05;;;4.80;99.90;;;;;;5037695;28;20040;-78
2021/05/03 02:15:56;;;;;;;6.85;4.95;;;4.10;99.90;;;;;;5031237;28;20100;-78
2021/05/03 02:18:21;;;;;;;8.13;5.03;;;4.60;99.90;;;;;;5032512;28;20114;-77
2021/05/03 02:20:47;;;;;;;8.68;5.57;;;4.60;99.90;;;;;;5035431;28;20030;-78
2021/05/03 02:23:14;;;;;;;9.63;5.90;;;4.70;99.90;;;;;;5035812;28;20028;-78
2021/05/03 02:25:39;;;;;;;10.07;5.65;;;4.50;99.90;;;;;;5036992;28;20399;-78
2021/05/03 02:28:05;;;;;;;10.77;6.43;;;4.60;99.90;;;;;;5034384;28;20037;-77
2021/05/03 02:30:31;;;;;;;9.93;6.63;;;4.60;99.90;;;;;;5036201;28;20033;-77
2021/05/03 02:32:56;;;;;;;13.60;7.32;;;4.60;99.90;;;;;;5030218;28;20030;-78
2021/05/03 02:35:25;;;;;;;10.13;6.57;;;4.70;99.90;;;;;;5035875;28;20044;-78
2021/05/03 02:37:56;;;;;;;7.80;5.43;;;4.70;99.90;;;;;;5033275;28;20482;-77
2021/05/03 02:40:24;;;;;;;9.68;5.72;;;4.70;99.90;;;;;;5034092;28;20771;-78
2021/05/03 02:42:52;;;;;;;8.57;5.53;;;4.70;99.90;;;;;;5034142;28;20479;-78
2021/05/03 02:45:18;;;;;;;12.48;6.78;;;4.70;99.90;;;;;;5032875;28;20045;-78
2021/05/03 02:47:44;;;;;;;10.57;6.07;;;4.60;99.90;;;;;;5033523;28;20124;-78
2021/05/03 02:50:11;;;;;;;8.10;6.05;;;4.70;99.90;;;;;;5031591;28;20025;-78
2021/05/03 02:52:37;;;;;;;8.65;6.32;;;4.60;99.90;;;;;;5031490;28;20357;-78
2021/05/03 02:55:04;;;;;;;11.00;7.32;;;4.70;99.90;;;;;;5032708;28;20025;-78
2021/05/03 02:57:29;;;;;;;10.07;5.72;;;4.70;99.90;;;;;;5037398;28;20475;-78
2021/05/03 02:59:55;;;;;;;8.10;5.68;;;4.70;99.90;;;;;;5034299;28;20044;-78
2021/05/03 03:02:21;;;;;;;8.32;5.63;;;4.70;99.90;;;;;;5033552;28;20116;-78
2021/05/03 03:04:47;;;;;;;9.90;6.40;;;4.70;99.90;;;;;;5032330;28;20382;-78
2021/05/03 03:07:12;;;;;;;7.57;5.57;;;4.60;99.90;;;;;;5033987;28;20413;-78
2021/05/03 03:09:38;;;;;;;7.80;5.28;;;4.60;99.90;;;;;;5034031;28;20041;-78
2021/05/03 03:12:05;;;;;;;11.35;5.80;;;4.60;99.90;;;;;;5038178;28;20036;-78
2021/05/03 03:14:31;;;;;;;6.82;4.63;;;4.50;99.90;;;;;;5033657;28;20037;-78
2021/05/03 03:16:57;;;;;;;7.60;5.03;;;4.50;99.90;;;;;;5032597;28;20033;-78
2021/05/03 03:19:22;;;;;;;11.40;5.88;;;4.50;99.90;;;;;;5029101;28;20079;-78
2021/05/03 03:21:48;;;;;;;10.23;4.97;;;4.40;99.90;;;;;;5031377;28;20517;-78
2021/05/03 03:24:14;;;;;;;7.38;4.97;;;4.40;99.90;;;;;;5033065;28;20061;-78
2021/05/03 03:26:39;;;;;;;8.45;4.75;;;4.40;99.90;;;;;;5030890;28;20456;-78
2021/05/03 03:29:06;;;;;;;10.07;5.13;;;4.40;99.90;;;;;;5029354;28;20850;-78
2021/05/03 03:31:32;;;;;;;7.30;4.60;;;4.40;99.90;;;;;;5029043;28;20502;-78
2021/05/03 03:33:57;;;;;;;7.63;4.35;;;4.50;99.90;;;;;;5035208;28;20044;-78
2021/05/03 03:36:24;;;;;;;9.23;5.63;;;4.50;99.90;;;;;;5032593;28;20037;-78
2021/05/03 03:38:49;;;;;;;10.38;5.15;;;4.50;99.90;;;;;;5032796;28;20480;-79
2021/05/03 03:41:15;;;;;;;10.13;6.47;;;4.40;99.90;;;;;;5030750;28;20563;-78
2021/05/03 03:43:41;;;;;;;8.98;6.78;;;4.40;99.90;;;;;;5034482;28;20030;-78
2021/05/03 03:46:06;;;;;;;8.27;5.97;;;4.40;99.90;;;;;;5027860;28;20099;-78
2021/05/03 03:48:32;;;;;;;10.68;6.50;;;4.40;99.90;;;;;;5029940;28;20514;-78
2021/05/03 03:50:58;;;;;;;9.93;6.90;;;4.40;99.90;;;;;;5030560;28;20040;-79
2021/05/03 03:53:23;;;;;;;8.82;6.60;;;4.40;99.90;;;;;;5031778;28;20471;-79
2021/05/03 03:55:49;;;;;;;12.02;5.88;;;4.40;99.90;;;;;;5033203;28;20048;-78
2021/05/03 03:58:15;;;;;;;7.50;5.20;;;4.20;99.90;;;;;;5028760;28;20036;-78
2021/05/03 04:00:40;;;;;;;8.10;5.53;;;4.10;99.90;;;;;;5032286;28;20073;-78
2021/05/03 04:03:07;;;;;;;9.70;5.38;;;4.20;99.90;;;;;;5035991;28;20040;-78
2021/05/03 04:05:56;;;;;;;12.10;7.25;;;4.20;99.90;;;;;;5032370;28;20060;-78
2021/05/03 04:11:12;;;;;;;12.02;6.10;;;4.00;99.90;;;;;;5028015;28;20048;-78
2021/05/03 04:22:29;;;;;;;7.95;5.45;;;3.90;99.90;;;;;;5035465;28;20044;-77
2021/05/03 04:25:09;;;;;;;9.55;6.07;;;3.90;99.90;;;;;;5031015;28;20033;-78
2021/05/03 04:27:36;;;;;;;9.07;5.90;;;4.00;99.90;;;;;;5027236;28;20108;-78
2021/05/03 04:30:05;;;;;;;9.48;6.35;;;4.00;99.90;;;;;;5038403;28;20331;-78
2021/05/03 04:32:30;;;;;;;11.00;6.05;;;4.00;99.90;;;;;;5033274;28;20475;-78
2021/05/03 04:34:56;;;;;;;11.63;6.40;;;4.00;99.90;;;;;;5029716;28;20380;-77
2021/05/03 04:37:21;;;;;;;14.20;6.15;;;4.00;99.90;;;;;;5032156;28;20422;-78
2021/05/03 04:39:47;;;;;;;13.80;6.97;;;3.90;99.90;;;;;;5036509;28;20033;-78
2021/05/03 04:42:13;;;;;;;9.63;5.95;;;3.90;99.90;;;;;;5031843;28;20040;-78
2021/05/03 04:44:38;;;;;;;13.02;8.07;;;3.90;99.90;;;;;;5035671;28;20133;-78
2021/05/03 04:47:04;;;;;;;11.75;6.95;;;4.00;99.90;;;;;;5039529;28;20037;-78
2021/05/03 04:49:30;;;;;;;9.85;6.65;;;4.00;99.90;;;;;;5032890;28;20199;-78
2021/05/03 04:51:55;;;;;;;12.95;6.80;;;4.10;99.90;;;;;;5035068;28;20037;-78
2021/05/03 04:54:21;;;;;;;10.43;7.10;;;4.00;99.90;;;;;;5036810;28;20040;-78
2021/05/03 04:56:46;;;;;;;10.23;6.68;;;4.10;99.90;;;;;;5032700;28;20037;-78
2021/05/03 04:59:12;;;;;;;9.38;6.60;;;4.10;99.90;;;;;;5033841;28;20124;-77
2021/05/03 05:01:38;;;;;;;10.60;7.03;;;4.20;99.90;;;;;;5033543;28;20060;-78
2021/05/03 05:04:04;;;;;;;16.38;8.52;;;4.30;99.90;;;;;;5038086;28;20493;-78
2021/05/03 05:06:29;;;;;;;13.30;8.27;;;4.30;99.90;;;;;;5034346;28;20029;-78
2021/05/03 05:08:55;;;;;;;20.73;11.75;;;4.30;99.90;;;;;;5031388;28;20557;-78
2021/05/03 05:11:21;;;;;;;22.52;12.45;;;4.30;99.90;;;;;;5035880;28;20033;-78
2021/05/03 05:13:46;;;;;;;18.05;11.02;;;4.30;99.90;;;;;;5034609;28;20057;-78
2021/05/03 05:16:12;;;;;;;18.67;10.18;;;4.30;99.90;;;;;;5041124;28;20082;-78
2021/05/03 05:18:38;;;;;;;15.55;7.43;;;4.40;99.90;;;;;;5035214;28;20577;-78
2021/05/03 05:21:04;;;;;;;7.82;5.70;;;4.60;99.90;;;;;;5037953;28;20033;-78
2021/05/03 05:23:29;;;;;;;13.88;5.45;;;4.90;99.90;;;;;;5031925;28;20447;-79
2021/05/03 05:25:55;;;;;;;10.27;5.43;;;5.20;99.90;;;;;;5036679;28;20083;-78
2021/05/03 05:28:21;;;;;;;9.85;5.13;;;5.60;99.90;;;;;;5034144;28;20060;-78
2021/05/03 05:30:46;;;;;;;9.65;4.97;;;5.70;99.90;;;;;;5036784;28;20150;-79
2021/05/03 05:33:12;;;;;;;10.73;5.05;;;5.90;99.90;;;;;;5031923;28;20033;-79
2021/05/03 05:35:38;;;;;;;7.55;4.82;;;6.10;99.90;;;;;;5031257;28;20642;-78
2021/05/03 05:38:03;;;;;;;8.48;4.30;;;6.30;99.90;;;;;;5038174;28;20082;-78
2021/05/03 05:40:29;;;;;;;13.20;5.20;;;6.50;99.90;;;;;;5043978;28;20047;-80
2021/05/03 05:42:55;;;;;;;7.00;4.65;;;6.80;99.90;;;;;;5034289;28;20036;-79
2021/05/03 05:45:20;;;;;;;8.38;6.03;;;7.00;99.90;;;;;;5030221;28;20096;-80
2021/05/03 05:47:46;;;;;;;11.55;7.20;;;7.20;99.90;;;;;;5036591;28;20037;-80
2021/05/03 05:50:12;;;;;;;11.57;6.35;;;7.40;99.90;;;;;;5032067;28;20049;-80
2021/05/03 05:52:38;;;;;;;16.67;6.15;;;7.60;99.90;;;;;;5038585;28;20063;-79
2021/05/03 05:55:04;;;;;;;9.63;7.35;;;7.60;99.90;;;;;;5034038;28;20449;-79
2021/05/03 05:57:30;;;;;;;11.23;5.43;;;7.80;99.90;;;;;;5028836;28;20025;-79
2021/05/03 05:59:55;;;;;;;7.75;3.88;;;7.80;99.90;;;;;;5035594;28;20052;-79
2021/05/03 06:02:21;;;;;;;6.10;4.10;;;7.00;99.90;;;;;;5032910;28;20108;-80
2021/05/03 06:04:46;;;;;;;7.38;4.50;;;6.90;99.90;;;;;;5034691;28;20045;-79
2021/05/03 06:07:12;;;;;;;7.78;4.28;;;6.90;99.90;;;;;;5033799;28;20398;-80
2021/05/03 06:09:38;;;;;;;9.50;4.40;;;7.00;99.90;;;;;;5035770;28;20048;-79
2021/05/03 06:12:04;;;;;;;8.52;4.78;;;7.40;99.90;;;;;;5034145;28;20036;-80
2021/05/03 06:14:29;;;;;;;9.00;5.70;;;7.70;99.90;;;;;;5039418;28;20114;-80
2021/05/03 06:16:55;;;;;;;11.05;7.32;;;7.90;99.90;;;;;;5042520;28;20033;-80
2021/05/03 06:19:20;;;;;;;10.32;5.75;;;8.30;99.90;;;;;;5036012;28;20032;-79
2021/05/03 06:21:46;;;;;;;9.25;6.50;;;8.40;99.90;;;;;;5035864;28;20036;-80
2021/05/03 06:24:12;;;;;;;9.90;6.00;;;8.60;99.90;;;;;;5031376;28;20601;-78
2021/05/03 06:26:37;;;;;;;6.88;4.40;;;8.90;99.90;;;;;;5034407;28;20067;-78
2021/05/03 06:29:03;;;;;;;6.93;5.03;;;8.80;99.90;;;;;;5035316;28;20037;-78
2021/05/03 06:31:31;;;;;;;4.97;3.28;;;8.90;99.90;;;;;;5033193;28;20383;-78
2021/05/03 06:33:56;;;;;;;6.00;3.60;;;9.00;99.90;;;;;;5034349;28;20075;-78
2021/05/03 06:36:22;;;;;;;8.10;5.55;;;9.20;99.90;;;;;;5035808;28;20115;-78
2021/05/03 06:38:48;;;;;;;5.72;3.75;;;9.30;99.90;;;;;;5037771;28;20308;-78
2021/05/03 06:41:13;;;;;;;6.05;3.72;;;9.30;99.90;;;;;;5035071;28;20029;-78
2021/05/03 06:43:40;;;;;;;11.35;4.43;;;9.50;99.90;;;;;;5035208;28;20071;-78
2021/05/03 06:46:05;;;;;;;5.80;3.88;;;9.50;99.90;;;;;;5038972;28;20568;-78
2021/05/03 06:48:31;;;;;;;6.28;3.65;;;9.60;99.90;;;;;;5036651;28;20037;-79
2021/05/03 06:50:57;;;;;;;8.43;5.05;;;9.50;99.90;;;;;;5035395;28;20029;-78
2021/05/03 06:53:24;;;;;;;9.05;5.72;;;9.80;99.90;;;;;;5034067;28;20119;-78
2021/05/03 06:55:50;;;;;;;4.53;3.10;;;10.00;99.90;;;;;;5037941;28;20560;-78
2021/05/03 06:58:15;;;;;;;7.90;3.90;;;10.10;99.90;;;;;;5027158;28;20032;-80
2021/05/03 07:00:42;;;;;;;7.20;3.58;;;10.20;99.90;;;;;;5036318;28;20203;-80
2021/05/03 07:03:09;;;;;;;7.07;3.17;;;10.30;99.90;;;;;;5033861;28;20032;-77
2021/05/03 07:05:35;;;;;;;5.75;2.80;;;10.30;99.90;;;;;;5034906;28;20124;-78
2021/05/03 07:08:00;;;;;;;4.28;2.60;;;10.40;99.90;;;;;;5036733;28;20552;-80
2021/05/03 07:10:26;;;;;;;5.28;2.63;;;10.40;99.90;;;;;;5031261;28;20150;-80
2021/05/03 07:12:52;;;;;;;5.22;3.17;;;10.60;99.90;;;;;;5036119;28;20117;-80
2021/05/03 07:15:18;;;;;;;3.90;2.42;;;10.70;99.90;;;;;;5032320;28;20112;-80
2021/05/03 07:17:45;;;;;;;5.38;2.38;;;10.80;99.90;;;;;;5034642;28;20029;-80
2021/05/03 07:20:12;;;;;;;3.85;2.42;;;11.00;99.90;;;;;;5033955;28;20033;-77
2021/05/03 07:22:37;;;;;;;5.00;2.85;;;11.10;99.90;;;;;;5035039;28;20028;-80
2021/05/03 07:25:06;;;;;;;5.18;2.10;;;11.20;99.90;;;;;;5032938;28;20038;-80
2021/05/03 07:27:32;;;;;;;9.75;2.35;;;11.40;99.90;;;;;;5031844;28;20115;-80
2021/05/03 07:29:57;;;;;;;8.02;2.45;;;10.90;99.90;;;;;;5031331;28;20152;-80
2021/05/03 07:32:23;;;;;;;4.40;2.00;;;10.90;99.90;;;;;;5030263;28;20025;-79
2021/05/03 07:34:49;;;;;;;5.68;2.38;;;11.50;99.90;;;;;;5031903;28;20489;-79
2021/05/03 07:37:14;;;;;;;4.93;2.40;;;11.60;99.90;;;;;;5028986;28;20044;-79
2021/05/03 07:39:42;;;;;;;4.13;2.17;;;11.80;99.90;;;;;;5030510;28;20540;-79
2021/05/03 07:42:09;;;;;;;4.45;2.00;;;12.10;99.90;;;;;;5031421;28;20021;-80
2021/05/03 07:44:35;;;;;;;8.23;3.00;;;12.50;99.90;;;;;;5032188;28;20053;-79
2021/05/03 07:47:01;;;;;;;5.40;3.45;;;12.50;99.90;;;;;;5035054;28;20040;-80
2021/05/03 07:49:26;;;;;;;4.90;2.50;;;12.80;99.90;;;;;;5030480;28;20037;-79
2021/05/03 07:51:52;;;;;;;8.27;2.95;;;12.90;99.90;;;;;;5036186;28;20037;-79
2021/05/03 07:54:18;;;;;;;4.82;2.65;;;13.30;99.90;;;;;;5048304;28;20028;-80
2021/05/03 07:56:44;;;;;;;4.93;2.40;;;13.30;99.90;;;;;;5042725;28;20025;-79
2021/05/03 07:59:10;;;;;;;4.80;2.88;;;13.50;99.90;;;;;;5039435;28;20037;-79
2021/05/03 08:01:37;;;;;;;4.88;2.00;;;13.70;99.90;;;;;;5036557;28;20071;-79
2021/05/03 08:04:03;;;;;;;4.25;1.80;;;13.40;99.90;;;;;;5034562;28;20033;-79
2021/05/03 08:06:29;;;;;;;3.67;1.40;;;13.60;99.90;;;;;;5031067;28;20033;-79
2021/05/03 08:08:55;;;;;;;5.55;1.52;;;13.80;99.90;;;;;;5035486;28;20110;-79
2021/05/03 08:11:21;;;;;;;2.80;1.40;;;14.00;99.90;;;;;;5033150;28;20584;-79
2021/05/03 08:13:47;;;;;;;3.75;1.77;;;13.90;98.70;;;;;;5037240;28;20036;-79
2021/05/03 08:16:16;;;;;;;2.83;1.63;;;13.00;99.90;;;;;;5034695;28;20041;-79
2021/05/03 08:18:42;;;;;;;4.85;2.13;;;12.30;99.90;;;;;;5035172;28;20052;-79
2021/05/03 08:21:10;;;;;;;3.92;1.77;;;11.80;99.90;;;;;;5029444;28;20245;-79
2021/05/03 08:23:36;;;;;;;3.83;1.55;;;11.80;99.90;;;;;;5031719;28;20462;-79
2021/05/03 08:26:02;;;;;;;4.55;1.60;;;11.70;99.90;;;;;;5034037;28;20063;-79
2021/05/03 08:28:28;;;;;;;3.10;1.50;;;11.10;99.90;;;;;;5031006;28;20471;-79
2021/05/03 08:30:54;;;;;;;3.20;1.50;;;11.50;99.90;;;;;;5034522;28;20040;-78
2021/05/03 08:33:20;;;;;;;3.63;1.48;;;11.50;99.90;;;;;;5033980;28;20548;-79
2021/05/03 08:35:46;;;;;;;3.10;1.60;;;11.70;99.90;;;;;;5035898;28;20032;-79
2021/05/03 08:38:14;;;;;;;4.28;1.63;;;11.60;99.90;;;;;;5037678;28;20055;-79
2021/05/03 08:40:40;;;;;;;3.78;1.60;;;11.70;99.90;;;;;;5040015;28;20021;-79
2021/05/03 08:43:06;;;;;;;3.90;2.00;;;11.60;99.90;;;;;;5031442;28;20482;-79
2021/05/03 08:45:33;;;;;;;4.75;2.17;;;11.70;99.90;;;;;;5035219;28;20056;-79
2021/05/03 08:53:38;;;;;;;3.67;2.03;;;11.70;99.90;;;;;;5038629;28;20475;-79
2021/05/03 08:56:05;;;;;;;4.70;2.00;;;12.20;99.90;;;;;;5034730;28;20029;-79
2021/05/03 08:58:30;;;;;;;3.53;1.52;;;12.70;99.90;;;;;;5036049;28;20417;-79
2021/05/03 09:00:56;;;;;;;3.45;1.77;;;12.50;99.90;;;;;;5036198;28;20025;-79
2021/05/03 09:03:23;;;;;;;3.60;1.92;;;12.80;99.90;;;;;;5035516;28;20025;-79
2021/05/03 09:05:49;;;;;;;4.03;2.10;;;12.60;98.90;;;;;;5032447;28;20037;-79
2021/05/03 09:08:28;;;;;;;7.25;2.30;;;12.40;99.90;;;;;;5035028;28;20376;-79
2021/05/03 09:10:55;;;;;;;4.15;1.90;;;12.50;99.90;;;;;;5028876;28;20483;-79
2021/05/03 09:13:35;;;;;;;6.07;1.73;;;13.10;99.90;;;;;;5034119;28;20410;-79
2021/05/03 09:16:22;;;;;;;3.95;1.60;;;12.90;97.40;;;;;;5034535;28;20033;-80
2021/05/03 09:18:49;;;;;;;5.05;1.77;;;12.50;98.90;;;;;;5035443;28;20037;-79
2021/05/03 09:21:29;;;;;;;3.40;1.70;;;12.80;98.30;;;;;;5032828;28;20029;-79
2021/05/03 09:24:07;;;;;;;4.78;1.50;;;12.70;98.90;;;;;;5036457;28;20443;-79
2021/05/03 09:26:46;;;;;;;5.88;1.95;;;12.80;98.50;;;;;;5035212;28;20446;-79
2021/05/03 09:29:31;;;;;;;7.22;1.80;;;12.70;96.60;;;;;;5037985;28;20075;-79
2021/05/03 09:32:00;;;;;;;6.05;2.30;;;12.60;97.80;;;;;;5034093;28;20479;-79
2021/05/03 09:34:30;;;;;;;5.20;2.78;;;12.80;99.90;;;;;;5038177;28;20029;-79
2021/05/03 09:37:16;;;;;;;4.15;2.10;;;13.00;99.30;;;;;;5036170;28;20058;-79
2021/05/03 09:39:43;;;;;;;6.50;2.08;;;12.90;99.60;;;;;;5037318;28;20040;-79
2021/05/03 09:42:09;;;;;;;5.25;2.10;;;13.20;99.90;;;;;;5037958;28;20032;-79
2021/05/03 09:44:35;;;;;;;6.28;2.40;;;13.70;99.60;;;;;;5034661;28;20218;-79
2021/05/03 09:47:00;;;;;;;3.67;1.67;;;14.20;99.40;;;;;;5043084;28;20033;-79
2021/05/03 09:49:28;;;;;;;4.45;2.20;;;14.70;98.50;;;;;;5046199;28;20037;-81
2021/05/03 09:52:00;;;;;;;4.05;1.80;;;15.20;96.30;;;;;;5043156;28;20153;-79
2021/05/03 09:54:29;;;;;;;3.88;1.80;;;15.40;94.30;;;;;;5035382;28;20029;-79
2021/05/03 09:56:59;;;;;;;3.55;1.75;;;15.70;97.10;;;;;;5042141;28;20044;-79
2021/05/03 09:59:49;;;;;;;3.22;1.60;;;16.00;95.40;;;;;;5037784;28;20167;-80
2021/05/03 10:02:24;;;;;;;2.97;1.70;;;16.30;93.00;;;;;;5038317;28;20032;-79
2021/05/03 10:04:53;;;;;;;6.35;1.70;;;15.00;92.10;;;;;;5029778;28;20072;-78
2021/05/03 10:07:21;;;;;;;4.15;1.65;;;15.30;91.60;;;;;;5038884;28;20035;-80
2021/05/03 10:10:02;;;;;;;5.22;1.83;;;15.20;92.90;;;;;;5032365;28;20381;-79
2021/05/03 10:12:28;;;;;;;6.18;2.13;;;14.60;89.00;;;;;;5030896;28;20071;-79
2021/05/03 10:14:57;;;;;;;6.72;1.60;;;14.30;89.10;;;;;;5037004;28;20025;-79
2021/05/03 10:17:22;;;;;;;3.33;1.60;;;14.60;92.40;;;;;;5036294;28;20029;-79
2021/05/03 10:19:50;;;;;;;3.42;1.50;;;14.80;92.50;;;;;;5035227;28;20025;-79
2021/05/03 10:22:21;;;;;;;2.97;1.70;;;14.60;93.20;;;;;;5039098;28;20094;-79
2021/05/03 10:24:53;;;;;;;3.45;1.60;;;14.70;89.00;;;;;;5040077;28;20040;-80
2021/05/03 10:27:21;;;;;;;3.03;1.58;;;14.00;90.20;;;;;;5035042;28;20029;-80
2021/05/03 10:29:46;;;;;;;3.67;1.20;;;14.70;91.70;;;;;;5040852;28;20620;-79
2021/05/03 10:32:20;;;;;;;4.35;1.27;;;14.90;90.10;;;;;;5042004;28;20037;-79
2021/05/03 10:34:58;;;;;;;3.33;1.30;;;14.20;88.60;;;;;;5031250;28;20490;-79
2021/05/03 10:37:29;;;;;;;3.03;1.42;;;14.30;89.90;;;;;;5031307;28;20033;-80
2021/05/03 10:39:58;;;;;;;2.78;1.10;;;15.00;90.60;;;;;;5033183;28;20437;-79
2021/05/03 10:42:25;;;;;;;2.97;1.30;;;15.10;91.50;;;;;;5034806;28;20050;-80
2021/05/03 10:45:19;;;;;;;2.05;1.17;;;15.20;90.90;;;;;;5034035;28;20077;-80
2021/05/03 10:47:53;;;;;;;3.22;1.35;;;15.60;90.30;;;;;;5032687;28;20041;-81
2021/05/03 10:50:47;;;;;;;2.97;1.17;;;15.50;85.80;;;;;;5040362;28;20116;-81
2021/05/03 10:56:11;;;;;;;2.45;1.10;;;14.90;81.90;;;;;;5032930;28;20037;-81
2021/05/03 10:58:55;;;;;;;1.95;1.00;;;15.70;89.30;;;;;;5040981;28;20025;-80
2021/05/03 11:01:21;;;;;;;2.35;0.93;;;15.60;82.90;;;;;;5038658;28;20072;-80
2021/05/03 11:03:56;;;;;;;2.63;1.23;;;15.60;83.50;;;;;;5035116;28;20096;-80
2021/05/03 11:06:37;;;;;;;2.70;1.60;;;16.00;82.80;;;;;;5037886;28;20289;-80
2021/05/03 11:09:28;;;;;;;4.05;1.42;;;16.30;88.30;;;;;;5035485;28;20371;-81
2021/05/03 11:12:14;;;;;;;3.47;1.55;;;16.10;84.40;;;;;;5035284;28;20041;-81
2021/05/03 11:15:01;;;;;;;4.07;1.17;;;16.00;85.40;;;;;;5024837;28;20533;-80
2021/05/03 11:17:27;;;;;;;4.57;1.20;;;16.10;85.00;;;;;;5036530;28;20045;-79
2021/05/03 11:22:39;;;;;;;3.05;0.90;;;15.00;79.40;;;;;;5030048;28;20471;-79
2021/05/03 11:25:21;;;;;;;4.25;1.17;;;14.60;81.00;;;;;;5030378;28;20029;-79
2021/05/03 11:28:03;;;;;;;;;;;14.80;81.40;;;;;;5033936;28;20033;-79
2021/05/03 11:33:07;;;;;;;2.25;0.90;;;15.20;83.60;;;;;;5035246;28;20163;-79
2021/05/03 11:38:32;;;;;;;3.22;0.95;;;14.70;78.30;;;;;;5034719;28;20037;-79
2021/05/03 11:46:10;;;;;;;6.55;1.75;;;15.10;82.90;;;;;;5036935;28;20127;-79
2021/05/03 11:48:36;;;;;;;3.95;1.40;;;15.50;84.10;;;;;;5031829;28;20139;-79
2021/05/03 11:51:07;;;;;;;6.63;1.20;;;15.40;80.90;;;;;;5035678;28;20128;-79
2021/05/03 11:53:41;;;;;;;3.53;1.20;;;15.20;78.50;;;;;;5028726;28;20025;-79
2021/05/03 11:56:23;;;;;;;2.95;1.25;;;15.20;81.80;;;;;;5042075;28;20033;-79
2021/05/03 11:58:51;;;;;;;2.13;0.90;;;15.70;83.90;;;;;;5044148;28;20064;-80
2021/05/03 12:01:19;;;;;;;2.58;1.10;;;15.90;79.50;;;;;;5033691;28;20024;-79
2021/05/03 12:03:46;;;;;;;4.70;1.30;;;16.40;83.80;;;;;;5048378;28;20032;-79
2021/05/03 12:06:39;;;;;;;5.38;1.35;;;16.00;78.50;;;;;;5038343;28;20025;-79
2021/05/03 12:09:14;;;;;;;3.40;1.00;;;15.70;78.70;;;;;;5042413;28;20052;-78
2021/05/03 12:11:54;;;;;;;5.57;1.88;;;15.60;77.70;;;;;;5047812;28;20031;-78
2021/05/03 12:14:41;;;;;;;4.60;2.00;;;15.60;81.90;;;;;;5049564;28;20041;-79
2021/05/03 12:17:18;;;;;;;4.28;2.05;;;15.50;78.30;;;;;;5039544;28;20034;-79
2021/05/03 12:19:44;;;;;;;4.43;1.45;;;15.50;83.50;;;;;;5040045;28;20148;-79
2021/05/03 12:22:10;;;;;;;3.85;1.60;;;15.60;83.40;;;;;;5043848;28;20025;-79
2021/05/03 12:24:40;;;;;;;3.40;1.45;;;15.70;85.00;;;;;;5049100;28;20033;-79
2021/05/03 12:27:06;;;;;;;4.07;1.52;;;15.60;82.50;;;;;;5042637;28;20029;-79
2021/05/03 12:29:33;;;;;;;4.78;1.95;;;15.70;81.60;;;;;;5040242;28;20047;-79
2021/05/03 12:31:58;;;;;;;4.65;1.85;;;16.10;84.20;;;;;;5036483;28;20032;-79
2021/05/03 12:34:26;;;;;;;5.55;1.30;;;16.20;83.00;;;;;;5034569;28;20045;-79
2021/05/03 12:37:05;;;;;;;3.47;1.45;;;15.90;77.10;;;;;;5034102;28;20041;-79
2021/05/03 12:39:36;;;;;;;3.90;1.20;;;16.30;83.80;;;;;;5033837;28;20029;-79
2021/05/03 12:42:15;;;;;;;2.75;1.17;;;16.60;86.40;;;;;;5032260;28;20550;-78
2021/05/03 12:44:56;;;;;;;9.75;1.65;;;16.70;79.90;;;;;;5035301;28;20045;-79
2021/05/03 12:50:04;;;;;;;3.90;1.30;;;16.50;80.90;;;;;;5038038;28;20037;-79
2021/05/03 12:52:39;;;;;;;3.00;1.10;;;16.30;80.00;;;;;;5035583;28;20108;-78
2021/05/03 12:55:19;;;;;;;5.10;1.27;;;16.50;82.40;;;;;;5039243;28;20041;-79
2021/05/03 12:58:07;;;;;;;2.42;0.80;;;16.50;78.00;;;;;;5036889;28;20033;-78
2021/05/03 13:00:38;;;;;;;4.18;1.50;;;16.40;80.20;;;;;;5044712;28;20029;-79
2021/05/03 13:03:23;;;;;;;2.47;1.05;;;16.60;79.00;;;;;;5037157;28;20383;-79
2021/05/03 13:06:25;;;;;;;3.20;1.10;;;16.10;75.80;;;;;;5036412;28;20465;-79
2021/05/03 13:29:09;;;;;;;7.10;1.10;;;16.90;80.80;;;;;;5036712;28;20391;-79
2021/05/03 13:31:36;;;;;;;2.33;0.90;;;16.70;79.20;;;;;;5038820;28;20032;-79
2021/05/03 13:34:05;;;;;;;10.00;1.15;;;16.90;82.80;;;;;;5035266;28;20741;-79
2021/05/03 13:36:31;;;;;;;3.85;1.00;;;17.10;84.50;;;;;;5038634;28;20025;-79
2021/05/03 13:38:57;;;;;;;5.95;0.85;;;17.00;78.80;;;;;;5037667;28;20060;-79
2021/05/03 13:41:23;;;;;;;1.77;0.80;;;17.00;79.60;;;;;;5031579;28;20095;-79
2021/05/03 13:43:50;;;;;;;1.73;0.80;;;17.10;82.00;;;;;;5035147;28;20034;-79
2021/05/03 13:46:15;;;;;;;3.95;1.05;;;17.20;82.00;;;;;;5039572;28;20049;-79
2021/05/03 13:48:41;;;;;;;4.43;1.05;;;17.20;80.60;;;;;;5036474;28;20021;-79
2021/05/03 13:51:08;;;;;;;3.13;1.08;;;17.30;80.70;;;;;;5035781;28;20371;-79
2021/05/03 13:53:37;;;;;;;8.02;1.75;;;17.40;81.40;;;;;;5034666;28;20059;-79